Irona, New York
Current Conditions -  °F | °C
As of 12:53 AM on Saturday 25 Oct 2014 (Local Time) from KPBG Reporting Station
Clear Clear  
Wind Chill: 41°   Ceiling: Unl
Heat Index: 41°   Visibility: 10mi
Dew Point: 40°   Wind: 3mph
Humidity: 96%   Direction: 190°S
Pressure: 29.79"   Gusts: NA
Location:  44.8543°N, 73.663°W
Report Text: KPBG 250453Z AUTO 19003KT 10SM CLR 05/04 A2979 RMK AO2 SLP088 T00500044 401060033
Loading
Personal Weather Stations






























Interactive Weather Map
Tropical Storm Tracking
New forecast layout! Learn more

10-Day Weather Forecast

Advertisements
Track Severe Weather on mobile